Time;durP1;ratioP1;P1;durP2;ratioP2;P2;SDS_P1;SDS_P2;PMS_P1;PMS_P2;Temp;Humidity;BMP_temperature;BMP_pressure;BME280_temperature;BME280_humidity;BME280_pressure;Samples;Min_cycle;Max_cycle;Signal;HPM_P1;HPM_P2
2022/03/09 00:05:38;;;;;;;33.53;16.97;;;;;;;-0.45;54.85;101149.84;18304845;32;20090;-65
2022/03/09 00:15:43;;;;;;;36.63;17.33;;;;;;;0.08;54.99;101150.94;18309094;32;20102;-65
2022/03/09 00:25:47;;;;;;;36.17;17.13;;;;;;;0.10;55.93;101149.37;18308990;32;20619;-65
2022/03/09 00:35:51;;;;;;;36.40;17.33;;;;;;;0.15;54.62;101130.75;18308602;32;20108;-65
2022/03/09 00:45:54;;;;;;;37.83;16.77;;;;;;;0.02;54.75;101124.97;18308284;32;20093;-65
2022/03/09 00:55:59;;;;;;;30.57;15.90;;;;;;;0.12;55.42;101128.87;18308123;32;20089;-65
2022/03/09 01:06:03;;;;;;;32.60;15.97;;;;;;;0.22;54.71;101120.00;18307949;32;20142;-65
2022/03/09 01:16:08;;;;;;;38.33;15.43;;;;;;;-0.01;54.91;101110.28;18306992;32;20163;-65
2022/03/09 01:26:12;;;;;;;32.80;16.80;;;;;;;-0.65;56.42;101120.53;18306887;32;20111;-65
2022/03/09 01:36:16;;;;;;;38.57;17.53;;;;;;;-0.21;56.31;101113.50;18306907;32;20167;-65
2022/03/09 01:46:24;;;;;;;33.07;16.97;;;;;;;-0.22;56.96;101133.13;18306270;32;20085;-65
2022/03/09 01:56:30;;;;;;;31.63;15.73;;;;;;;-0.39;57.06;101136.47;18306340;32;20125;-65
2022/03/09 02:06:35;;;;;;;34.57;15.57;;;;;;;-0.08;57.65;101131.28;18306157;32;20116;-65
2022/03/09 02:16:39;;;;;;;33.27;16.90;;;;;;;0.08;57.56;101126.97;18305662;32;20434;-65
2022/03/09 02:26:44;;;;;;;35.63;17.37;;;;;;;-0.10;58.27;101132.00;18304313;32;20088;-65
2022/03/09 02:36:48;;;;;;;50.17;22.87;;;;;;;0.10;58.05;101140.75;18305607;32;20098;-65
2022/03/09 02:53:20;;;;;;;31.63;15.10;;;;;;;0.52;55.01;101101.78;18606540;31;124037;-65
2022/03/09 03:03:24;;;;;;;29.97;14.63;;;;;;;0.52;55.01;101101.78;18546085;32;20104;-65
2022/03/09 03:13:29;;;;;;;30.50;13.83;;;;;;;-0.38;57.01;101107.44;18544959;32;20463;-65
2022/03/09 03:23:33;;;;;;;24.40;13.53;;;;;;;0.07;55.54;101115.81;18544741;32;20092;-65
2022/03/09 03:33:38;;;;;;;29.33;14.07;;;;;;;-0.59;57.32;101129.44;18544171;32;20101;-65
2022/03/09 03:43:41;;;;;;;33.73;16.70;;;;;;;-0.89;58.36;101118.37;18543579;32;20096;-65
2022/03/09 03:53:46;;;;;;;32.03;15.40;;;;;;;-0.84;58.95;101127.22;18543814;32;20089;-65
2022/03/09 04:03:49;;;;;;;30.37;14.67;;;;;;;-0.56;60.15;101131.31;18503667;32;20081;-65
2022/03/09 04:13:53;;;;;;;30.37;14.60;;;;;;;-0.38;58.63;101116.03;18499671;32;20103;-65
2022/03/09 04:23:56;;;;;;;31.07;13.97;;;;;;;-0.36;59.32;101118.69;18499360;32;20115;-66
2022/03/09 04:34:01;;;;;;;26.53;13.83;;;;;;;0.01;58.18;101120.66;18499025;32;20089;-65
2022/03/09 04:44:05;;;;;;;29.63;14.83;;;;;;;-0.10;58.93;101116.59;18498491;32;20146;-65
2022/03/09 04:54:09;;;;;;;30.43;14.57;;;;;;;-0.16;59.92;101117.16;18498643;32;20088;-65
2022/03/09 05:04:13;;;;;;;30.80;15.57;;;;;;;-0.06;59.00;101104.00;18496849;32;20111;-66
2022/03/09 05:14:17;;;;;;;31.17;14.73;;;;;;;-0.04;59.72;101116.94;18494234;32;20116;-65
2022/03/09 05:24:20;;;;;;;30.43;14.83;;;;;;;0.08;59.57;101117.56;18494724;32;20065;-65
2022/03/09 05:34:25;;;;;;;32.97;14.47;;;;;;;-0.22;59.81;101104.91;18492863;32;20100;-66
2022/03/09 05:44:28;;;;;;;29.17;14.23;;;;;;;0.22;58.88;101114.84;18492742;32;20124;-65
2022/03/09 05:54:33;;;;;;;29.10;13.20;;;;;;;0.19;59.50;101145.50;18492827;32;20115;-65
2022/03/09 06:04:36;;;;;;;32.23;14.67;;;;;;;0.46;58.75;101155.44;18491355;32;20120;-66
2022/03/09 06:14:41;;;;;;;35.37;17.30;;;;;;;0.59;58.47;101174.94;18492036;32;20097;-65
2022/03/09 06:24:44;;;;;;;26.33;15.03;;;;;;;0.73;59.02;101161.09;18495551;32;20119;-65
2022/03/09 06:34:48;;;;;;;33.87;18.33;;;;;;;0.96;58.95;101163.91;18495337;32;20093;-65
2022/03/09 06:44:52;;;;;;;167.02;26.52;;;;;;;1.33;58.40;101165.72;18494321;32;20429;-65
2022/03/09 06:55:02;;;;;;;29.20;15.70;;;;;;;1.71;57.21;101165.78;18493997;32;20733;-66
2022/03/09 07:05:06;;;;;;;27.60;14.15;;;;;;;2.39;56.01;101164.47;18492760;32;20429;-66
2022/03/09 07:15:13;;;;;;;30.92;15.98;;;;;;;2.53;52.83;101186.53;18490153;32;20108;-66
2022/03/09 07:25:16;;;;;;;27.92;14.32;;;;;;;2.77;52.87;101183.28;18492279;32;20093;-66
2022/03/09 07:35:21;;;;;;;30.77;14.75;;;;;;;3.14;52.85;101161.59;18495349;32;20100;-66
2022/03/09 07:45:24;;;;;;;32.47;15.07;;;;;;;3.80;51.28;101164.09;18499429;32;20132;-66
2022/03/09 07:55:29;;;;;;;27.37;13.77;;;;;;;4.55;49.60;101172.81;18499542;32;20100;-66
2022/03/09 08:05:32;;;;;;;25.27;13.40;;;;;;;4.08;49.20;101173.75;18499065;32;20187;-66
2022/03/09 08:15:37;;;;;;;23.20;12.65;;;;;;;5.66;46.36;101141.00;18499280;32;20123;-66
2022/03/09 08:25:40;;;;;;;26.75;13.32;;;;;;;7.49;42.85;101111.09;18499965;32;20140;-67
2022/03/09 08:35:45;;;;;;;25.27;12.55;;;;;;;8.30;40.03;101117.94;18498870;32;20089;-66
2022/03/09 08:45:51;;;;;;;27.20;14.48;;;;;;;8.74;38.17;101102.28;18498468;32;20134;-67
2022/03/09 08:55:55;;;;;;;26.37;14.43;;;;;;;9.70;36.14;101091.50;18498672;32;20109;-66
2022/03/09 09:05:59;;;;;;;22.17;11.77;;;;;;;9.25;36.91;101086.53;18498143;32;20088;-66
2022/03/09 09:16:04;;;;;;;26.05;12.40;;;;;;;10.06;34.91;101071.91;18496826;32;20092;-67
2022/03/09 09:26:08;;;;;;;17.25;9.32;;;;;;;10.37;34.86;101059.16;18493609;32;20353;-67
2022/03/09 09:36:33;;;;;;;15.05;7.35;;;;;;;12.07;31.91;101063.69;18498590;32;20208;-67
2022/03/09 09:46:39;;;;;;;12.35;6.60;;;;;;;15.15;25.70;101060.72;18497109;32;20097;-67
2022/03/09 09:56:44;;;;;;;12.40;6.57;;;;;;;14.40;26.97;101050.84;18496353;32;20097;-67
2022/03/09 10:06:47;;;;;;;12.93;6.55;;;;;;;15.92;24.72;101049.25;18496709;32;20794;-67
2022/03/09 10:17:05;;;;;;;12.27;7.25;;;;;;;15.28;25.71;101057.06;18496248;32;20092;-67
2022/03/09 10:27:09;;;;;;;12.37;6.32;;;;;;;14.49;27.33;101042.88;18495232;32;20104;-67
2022/03/09 10:37:14;;;;;;;11.38;6.82;;;;;;;15.67;26.22;101028.53;18495575;32;20089;-67
2022/03/09 10:47:29;;;;;;;13.05;7.03;;;;;;;16.58;24.48;101025.44;18494399;32;20471;-67
2022/03/09 10:57:34;;;;;;;13.60;7.85;;;;;;;16.24;24.52;101010.16;18494531;32;20084;-68
2022/03/09 11:07:38;;;;;;;12.93;7.68;;;;;;;18.38;22.48;100997.06;18495422;32;20128;-67
2022/03/09 11:17:43;;;;;;;16.45;9.52;;;;;;;18.06;23.11;100985.53;18501368;32;20092;-68
2022/03/09 11:27:47;;;;;;;15.23;7.72;;;;;;;18.44;22.98;100965.19;18501090;32;20103;-68
2022/03/09 11:37:56;;;;;;;14.80;8.27;;;;;;;17.85;23.09;100950.78;18500931;32;20096;-68
2022/03/09 11:48:09;;;;;;;18.17;9.57;;;;;;;16.61;24.78;100950.72;18500240;32;20097;-67
2022/03/09 11:58:17;;;;;;;19.85;9.35;;;;;;;14.52;28.16;100950.03;18499666;32;20089;-67
2022/03/09 12:08:20;;;;;;;19.08;7.95;;;;;;;14.18;29.42;100932.84;18499748;32;20175;-67
2022/03/09 12:18:37;;;;;;;14.13;7.57;;;;;;;13.56;29.86;100925.41;18499214;32;20144;-69
2022/03/09 12:28:47;;;;;;;11.57;5.95;;;;;;;14.20;29.53;100919.72;18499174;32;20107;-70
2022/03/09 12:38:53;;;;;;;10.45;5.07;;;;;;;14.49;28.36;100915.94;18499856;32;20164;-69
2022/03/09 12:49:04;;;;;;;16.08;7.53;;;;;;;14.51;27.45;100896.66;18495373;32;20096;-69
2022/03/09 12:59:13;;;;;;;12.57;5.30;;;;;;;14.34;28.17;100903.84;18496924;32;20447;-69
2022/03/09 13:09:21;;;;;;;12.93;6.72;;;;;;;13.62;28.84;100904.41;18498044;32;20110;-70
2022/03/09 13:19:25;;;;;;;12.95;6.43;;;;;;;13.29;29.94;100917.69;18497734;32;20100;-69
2022/03/09 13:29:31;;;;;;;11.70;5.85;;;;;;;13.11;30.33;100908.16;18496822;32;20088;-69
2022/03/09 13:39:43;;;;;;;19.67;7.55;;;;;;;13.26;30.08;100903.72;18497689;32;20116;-70
2022/03/09 13:49:47;;;;;;;25.65;12.18;;;;;;;12.84;31.13;100878.56;18497029;32;20463;-67
2022/03/09 13:59:52;;;;;;;17.70;11.65;;;;;;;13.23;30.97;100894.13;18496609;32;20101;-67
2022/03/09 14:10:16;;;;;;;13.62;7.32;;;;;;;12.97;32.00;100887.25;18496338;32;20093;-67
2022/03/09 14:20:21;;;;;;;15.25;7.80;;;;;;;12.86;32.21;100884.66;18496376;32;20085;-67
2022/03/09 14:30:25;;;;;;;13.05;6.80;;;;;;;12.71;32.73;100887.34;18494873;32;20354;-67
2022/03/09 14:40:30;;;;;;;15.05;8.95;;;;;;;12.51;32.40;100895.25;18494074;32;20504;-67
2022/03/09 14:50:34;;;;;;;12.50;7.37;;;;;;;12.62;32.75;100885.63;18494111;32;20092;-67
2022/03/09 15:00:39;;;;;;;18.85;9.48;;;;;;;12.34;33.68;100889.19;18493891;32;20108;-67
2022/03/09 15:10:44;;;;;;;17.95;9.02;;;;;;;12.44;32.76;100886.56;18493761;32;20085;-66
2022/03/09 15:20:49;;;;;;;15.32;7.87;;;;;;;12.25;33.18;100888.31;18449002;32;20101;-67
2022/03/09 15:30:52;;;;;;;14.55;7.55;;;;;;;11.93;33.47;100876.97;18490906;32;20353;-67
2022/03/09 15:40:56;;;;;;;14.75;7.80;;;;;;;12.31;32.90;100877.84;18490553;32;20093;-67
2022/03/09 15:51:00;;;;;;;15.70;7.70;;;;;;;11.72;33.92;100881.31;18490736;32;20107;-67
2022/03/09 16:01:05;;;;;;;26.58;14.70;;;;;;;11.76;33.65;100876.97;18500313;32;20119;-66
2022/03/09 16:11:08;;;;;;;15.07;7.80;;;;;;;11.65;33.60;100883.06;18500931;32;20096;-67
2022/03/09 16:21:18;;;;;;;24.75;9.98;;;;;;;11.60;33.42;100887.41;18500173;32;20107;-67
2022/03/09 16:31:22;;;;;;;16.50;7.65;;;;;;;11.35;33.52;100897.84;18499433;32;20102;-67
2022/03/09 16:41:27;;;;;;;15.88;7.28;;;;;;;11.45;32.55;100906.56;18499193;32;20141;-65
2022/03/09 16:51:33;;;;;;;35.75;9.55;;;;;;;11.54;32.42;100925.75;18498122;32;20169;-65
2022/03/09 17:01:37;;;;;;;21.30;10.13;;;;;;;11.71;32.11;100921.44;18496460;32;20096;-67
2022/03/09 17:11:41;;;;;;;14.23;7.70;;;;;;;11.41;32.76;100933.56;18498165;32;20140;-67
2022/03/09 17:21:45;;;;;;;15.70;8.43;;;;;;;11.20;32.75;100944.81;18498176;32;20103;-67
2022/03/09 17:31:48;;;;;;;15.50;7.60;;;;;;;11.22;32.58;100959.66;18496847;32;20081;-68
2022/03/09 17:41:53;;;;;;;17.20;8.00;;;;;;;11.14;32.94;100961.34;18497616;32;20096;-67
2022/03/09 17:51:57;;;;;;;16.65;9.85;;;;;;;10.98;33.36;100965.63;18496967;32;20092;-67
2022/03/09 18:02:02;;;;;;;20.23;10.93;;;;;;;11.11;32.83;100969.19;18496991;32;20108;-67
2022/03/09 18:12:06;;;;;;;32.38;16.35;;;;;;;10.81;33.17;100966.41;18495300;32;20093;-67
2022/03/09 18:22:11;;;;;;;22.08;12.27;;;;;;;10.56;33.52;100975.81;18495627;32;20121;-67
2022/03/09 18:32:14;;;;;;;15.07;7.55;;;;;;;10.47;33.79;100980.97;18494986;32;20100;-67
2022/03/09 18:42:19;;;;;;;18.62;8.65;;;;;;;10.11;33.72;100999.78;18494816;32;20118;-67
2022/03/09 18:52:23;;;;;;;22.92;13.07;;;;;;;9.60;35.10;101004.47;18494265;32;20161;-67
2022/03/09 19:02:27;;;;;;;19.58;10.40;;;;;;;10.03;35.15;101024.06;18493867;32;20097;-67
2022/03/09 19:12:31;;;;;;;21.42;11.07;;;;;;;9.71;35.58;101035.88;18493104;32;20174;-67
2022/03/09 19:22:36;;;;;;;19.90;10.95;;;;;;;9.44;36.12;101037.28;18492318;32;20101;-67
2022/03/09 19:32:39;;;;;;;26.02;12.70;;;;;;;9.21;36.43;101042.19;18498143;32;20103;-67
2022/03/09 19:42:44;;;;;;;24.02;12.50;;;;;;;8.57;38.21;101059.47;18500154;32;20092;-67
2022/03/09 19:52:47;;;;;;;27.00;14.18;;;;;;;8.60;38.39;101051.69;18500362;32;20105;-67
2022/03/09 20:02:52;;;;;;;33.95;17.90;;;;;;;8.10;39.40;101063.81;18501393;32;20115;-67
2022/03/09 20:12:56;;;;;;;36.70;18.73;;;;;;;7.74;39.68;101070.06;18500018;32;20073;-67
2022/03/09 20:23:00;;;;;;;31.80;16.52;;;;;;;7.29;41.40;101074.31;18499844;32;20388;-66
2022/03/09 20:33:04;;;;;;;37.65;19.30;;;;;;;7.00;41.55;101072.78;18498678;32;20104;-67
2022/03/09 20:43:08;;;;;;;32.78;17.58;;;;;;;6.48;42.99;101083.66;18498347;32;20119;-66
2022/03/09 20:53:11;;;;;;;33.95;16.33;;;;;;;5.57;45.82;101088.94;18497759;32;20089;-66
2022/03/09 21:03:16;;;;;;;36.67;18.30;;;;;;;5.18;45.79;101090.34;18497147;32;20187;-66
2022/03/09 21:13:20;;;;;;;35.40;18.60;;;;;;;4.65;47.11;101091.28;18499173;32;20106;-66
2022/03/09 21:23:25;;;;;;;33.25;17.12;;;;;;;4.12;48.92;101104.97;18496958;32;20096;-66
2022/03/09 21:33:29;;;;;;;46.17;22.15;;;;;;;3.85;49.21;101098.88;18495034;32;20113;-66
2022/03/09 21:43:34;;;;;;;37.42;19.87;;;;;;;3.71;48.87;101111.28;18494291;32;20100;-66
2022/03/09 21:53:38;;;;;;;48.72;22.90;;;;;;;3.15;51.21;101111.72;18493261;32;20119;-66
2022/03/09 22:03:42;;;;;;;52.83;24.75;;;;;;;2.51;52.23;101123.75;18491585;32;20101;-67
2022/03/09 22:13:46;;;;;;;44.22;20.30;;;;;;;2.44;52.68;101122.59;18491488;32;20115;-66
2022/03/09 22:23:50;;;;;;;65.85;30.17;;;;;;;2.23;52.03;101122.56;18489683;32;20355;-67
2022/03/09 22:33:54;;;;;;;53.10;25.10;;;;;;;1.89;53.62;101109.06;18495582;32;20099;-66
2022/03/09 22:43:58;;;;;;;35.83;16.08;;;;;;;1.79;53.45;101120.63;18495360;32;20112;-66
2022/03/09 22:54:01;;;;;;;37.00;17.00;;;;;;;1.46;53.37;101135.41;18494465;32;20146;-66
2022/03/09 23:04:07;;;;;;;43.15;19.85;;;;;;;1.86;53.49;101129.53;18496833;32;20100;-66
2022/03/09 23:14:10;;;;;;;47.90;22.48;;;;;;;1.74;54.27;101135.00;18501567;32;20076;-66
2022/03/09 23:24:15;;;;;;;48.28;20.65;;;;;;;1.56;54.59;101147.03;18502484;32;20354;-66
2022/03/09 23:34:18;;;;;;;43.90;20.73;;;;;;;1.52;55.01;101143.44;18501912;32;20097;-66
2022/03/09 23:44:22;;;;;;;37.60;18.97;;;;;;;1.31;54.67;101145.84;18500476;32;20470;-66
2022/03/09 23:54:26;;;;;;;33.80;17.17;;;;;;;1.12;55.41;101149.25;18500390;32;20378;-65
